Time;durP1;ratioP1;P1;durP2;ratioP2;P2;SDS_P1;SDS_P2;PMS_P1;PMS_P2;Temp;Humidity;BMP_temperature;BMP_pressure;BME280_temperature;BME280_humidity;BME280_pressure;Samples;Min_cycle;Max_cycle;Signal;HPM_P1;HPM_P2
2022/11/19 00:00:50;;;;;;;0.38;0.38;;;4.90;99.90;;;;;;5087026;28;20043;-75
2022/11/19 00:03:20;;;;;;;0.20;0.20;;;4.70;99.90;;;;;;5088161;28;20469;-76
2022/11/19 00:05:48;;;;;;;0.63;0.60;;;4.70;99.90;;;;;;5088931;28;20032;-76
2022/11/19 00:08:16;;;;;;;0.40;0.40;;;4.60;99.90;;;;;;5090599;28;20019;-75
2022/11/19 00:10:43;;;;;;;3.15;0.52;;;4.60;99.90;;;;;;5089198;28;20563;-76
2022/11/19 00:13:09;;;;;;;1.73;0.70;;;4.70;99.90;;;;;;5090380;28;20032;-76
2022/11/19 00:15:36;;;;;;;0.40;0.38;;;4.70;99.90;;;;;;5090401;28;20433;-78
2022/11/19 00:18:03;;;;;;;0.45;0.45;;;4.80;99.90;;;;;;5089101;28;20039;-76
2022/11/19 00:20:29;;;;;;;3.05;0.52;;;4.80;99.90;;;;;;5090388;28;20024;-76
2022/11/19 00:22:56;;;;;;;0.45;0.38;;;4.90;99.90;;;;;;5088920;28;20402;-76
2022/11/19 00:25:23;;;;;;;2.08;0.40;;;4.90;99.90;;;;;;5089955;28;20031;-77
2022/11/19 00:27:49;;;;;;;2.85;1.08;;;5.00;99.90;;;;;;5091678;28;20024;-76
2022/11/19 00:30:15;;;;;;;1.58;0.73;;;5.10;99.90;;;;;;5090219;28;20032;-76
2022/11/19 00:32:41;;;;;;;2.90;0.47;;;5.20;99.90;;;;;;5088775;28;20020;-76
2022/11/19 00:35:08;;;;;;;1.88;0.60;;;5.30;99.90;;;;;;5090931;28;20052;-76
2022/11/19 00:37:33;;;;;;;1.95;0.40;;;5.40;99.90;;;;;;5090845;28;20054;-76
2022/11/19 00:40:00;;;;;;;0.65;0.40;;;5.50;99.90;;;;;;5090275;28;20051;-76
2022/11/19 00:42:26;;;;;;;0.30;0.30;;;5.60;99.90;;;;;;5089847;28;20032;-76
2022/11/19 00:44:52;;;;;;;1.40;0.35;;;5.60;99.90;;;;;;5089980;28;20100;-76
2022/11/19 00:47:17;;;;;;;0.38;0.38;;;5.70;99.90;;;;;;5088496;28;20476;-76
2022/11/19 00:49:43;;;;;;;6.32;0.60;;;5.80;99.90;;;;;;5090031;28;20510;-75
2022/11/19 00:52:09;;;;;;;0.82;0.30;;;5.70;99.90;;;;;;5089700;28;20081;-75
2022/11/19 00:54:35;;;;;;;0.20;0.20;;;5.80;99.90;;;;;;5089644;28;20032;-75
2022/11/19 00:57:00;;;;;;;0.20;0.20;;;5.80;99.90;;;;;;5090081;28;20034;-77
2022/11/19 00:59:26;;;;;;;1.05;0.28;;;5.90;99.90;;;;;;5089772;28;20073;-75
2022/11/19 01:01:52;;;;;;;0.50;0.50;;;6.00;99.90;;;;;;5088376;28;20511;-75
2022/11/19 01:04:18;;;;;;;0.65;0.40;;;6.10;99.90;;;;;;5087842;28;20024;-76
2022/11/19 01:06:44;;;;;;;0.40;0.40;;;6.10;99.90;;;;;;5089772;28;20367;-75
2022/11/19 01:09:10;;;;;;;0.30;0.30;;;6.20;99.90;;;;;;5090064;28;20024;-75
2022/11/19 01:11:37;;;;;;;4.35;0.30;;;6.20;99.90;;;;;;5089963;28;20073;-75
2022/11/19 01:14:05;;;;;;;0.30;0.28;;;6.20;99.90;;;;;;5090214;28;20538;-76
2022/11/19 01:16:33;;;;;;;0.60;0.60;;;6.20;99.90;;;;;;5089689;28;20433;-75
2022/11/19 01:19:00;;;;;;;0.73;0.43;;;6.20;99.90;;;;;;5090640;28;20020;-76
2022/11/19 01:21:29;;;;;;;5.78;1.10;;;6.20;99.90;;;;;;5089261;28;20036;-76
2022/11/19 01:23:55;;;;;;;0.52;0.52;;;6.20;99.90;;;;;;5090637;28;20032;-76
2022/11/19 01:26:21;;;;;;;0.47;0.47;;;6.20;99.90;;;;;;5090728;28;20515;-75
2022/11/19 01:28:47;;;;;;;0.28;0.28;;;6.20;99.90;;;;;;5089397;28;20058;-76
2022/11/19 01:31:27;;;;;;;0.20;0.20;;;6.20;99.90;;;;;;5089087;28;20056;-76
2022/11/19 01:33:54;;;;;;;0.30;0.30;;;6.20;99.90;;;;;;5090983;28;20024;-75
2022/11/19 01:36:25;;;;;;;1.52;0.75;;;6.30;99.90;;;;;;5091665;28;20408;-75
2022/11/19 01:38:56;;;;;;;0.35;0.35;;;6.30;99.90;;;;;;5090356;28;20028;-76
2022/11/19 01:41:24;;;;;;;0.20;0.20;;;6.40;99.90;;;;;;5090303;28;20043;-75
2022/11/19 01:43:57;;;;;;;0.10;0.10;;;6.40;99.90;;;;;;5091322;28;20489;-75
2022/11/19 01:46:25;;;;;;;1.48;0.50;;;6.40;99.90;;;;;;5090162;28;20032;-75
2022/11/19 01:48:52;;;;;;;1.20;0.30;;;6.30;99.90;;;;;;5089792;28;20024;-76
2022/11/19 01:51:37;;;;;;;0.20;0.20;;;6.30;99.90;;;;;;5091128;28;20103;-75
2022/11/19 01:54:27;;;;;;;0.22;0.20;;;4.30;99.90;;;;;;5090021;28;20039;-76
2022/11/19 01:57:00;;;;;;;0.28;0.28;;;6.20;99.90;;;;;;5091160;28;20549;-75
2022/11/19 01:59:28;;;;;;;0.45;0.45;;;6.20;99.90;;;;;;5091016;28;20032;-75
2022/11/19 02:01:55;;;;;;;2.20;0.30;;;6.20;99.90;;;;;;5091161;28;20404;-75
2022/11/19 02:04:22;;;;;;;0.10;0.10;;;6.20;99.90;;;;;;5089104;28;20016;-75
2022/11/19 02:06:49;;;;;;;6.55;0.30;;;6.20;99.90;;;;;;5090707;28;20486;-75
2022/11/19 02:09:14;;;;;;;0.20;0.20;;;6.20;99.90;;;;;;5090892;28;20099;-75
2022/11/19 02:11:58;;;;;;;0.40;0.40;;;6.20;99.90;;;;;;5090820;28;20158;-75
2022/11/19 02:15:01;;;;;;;0.10;0.10;;;6.10;99.90;;;;;;5089599;28;20666;-76
2022/11/19 02:17:46;;;;;;;0.15;0.15;;;6.10;99.90;;;;;;5089635;28;20544;-75
2022/11/19 02:20:37;;;;;;;0.20;0.20;;;6.00;99.90;;;;;;5090421;28;20099;-75
2022/11/19 02:23:13;;;;;;;0.28;0.20;;;6.00;99.90;;;;;;5090799;28;20039;-76
2022/11/19 02:25:50;;;;;;;0.30;0.30;;;5.90;99.90;;;;;;5090767;28;20388;-75
2022/11/19 02:28:57;;;;;;;1.42;0.50;;;5.90;99.90;;;;;;5088756;28;20115;-75
2022/11/19 02:31:28;;;;;;;0.40;0.40;;;5.90;99.90;;;;;;5027895;28;20029;-75
2022/11/19 02:34:03;;;;;;;0.35;0.35;;;5.90;99.90;;;;;;5078826;28;20028;-76
2022/11/19 02:36:44;;;;;;;0.40;0.20;;;5.90;99.90;;;;;;5088577;28;20327;-76
2022/11/19 02:39:22;;;;;;;0.20;0.20;;;5.80;99.90;;;;;;5089076;28;20069;-76
2022/11/19 02:42:09;;;;;;;0.20;0.20;;;5.80;99.90;;;;;;5088805;28;20028;-75
2022/11/19 02:45:01;;;;;;;0.20;0.20;;;5.70;99.90;;;;;;5089051;28;20507;-76
2022/11/19 02:47:34;;;;;;;1.55;0.20;;;5.60;99.90;;;;;;5089280;28;20019;-76
2022/11/19 02:50:23;;;;;;;0.22;0.22;;;5.50;99.90;;;;;;5087373;28;20027;-76
2022/11/19 02:52:49;;;;;;;6.03;0.38;;;5.40;99.90;;;;;;5087847;28;20420;-76
2022/11/19 02:55:20;;;;;;;0.20;0.20;;;5.40;99.90;;;;;;5088569;28;20038;-76
2022/11/19 03:04:28;;;;;;;0.38;0.35;;;5.30;99.90;;;;;;5089002;28;20028;-75
2022/11/19 03:06:31;;;;;;;0.20;0.20;;;5.20;99.90;;;;;;5090267;28;20031;-77
2022/11/19 03:08:58;;;;;;;1.70;0.50;;;5.40;99.90;;;;;;5090251;28;20099;-76
2022/11/19 03:11:26;;;;;;;0.68;0.40;;;5.30;99.90;;;;;;5091066;28;20020;-77
2022/11/19 03:17:20;;;;;;;0.95;0.30;;;5.30;99.90;;;;;;5090061;28;20089;-76
2022/11/19 03:19:49;;;;;;;0.30;0.30;;;5.30;99.90;;;;;;5101869;28;20032;-76
2022/11/19 03:22:19;;;;;;;0.95;0.90;;;5.10;99.90;;;;;;5088376;28;20506;-76
2022/11/19 03:24:54;;;;;;;0.50;0.50;;;5.10;99.90;;;;;;5089869;28;20047;-76
2022/11/19 03:27:35;;;;;;;0.43;0.30;;;5.00;99.90;;;;;;5088297;28;20020;-76
2022/11/19 03:30:03;;;;;;;0.63;0.28;;;4.90;99.90;;;;;;5089849;28;20043;-77
2022/11/19 03:32:36;;;;;;;3.88;0.40;;;4.80;99.90;;;;;;5089716;28;20077;-76
2022/11/19 03:35:10;;;;;;;0.20;0.20;;;4.70;99.90;;;;;;5089253;28;20063;-76
2022/11/19 03:37:39;;;;;;;0.22;0.22;;;4.60;99.90;;;;;;5088185;28;20027;-76
2022/11/19 03:40:07;;;;;;;0.38;0.32;;;4.50;99.90;;;;;;5087977;28;20515;-75
2022/11/19 03:42:34;;;;;;;0.65;0.45;;;4.50;99.90;;;;;;5090186;28;20047;-76
2022/11/19 03:45:10;;;;;;;0.40;0.40;;;4.50;99.90;;;;;;5088094;28;20027;-76
2022/11/19 03:47:39;;;;;;;0.40;0.30;;;4.50;99.90;;;;;;5088400;28;20416;-75
2022/11/19 03:50:30;;;;;;;0.50;0.50;;;4.50;99.90;;;;;;5087988;28;20028;-76
2022/11/19 03:52:57;;;;;;;0.28;0.20;;;6.80;99.90;;;;;;5063645;28;20158;-76
2022/11/19 03:55:31;;;;;;;0.30;0.30;;;4.60;99.90;;;;;;5089501;28;20016;-76
2022/11/19 03:58:05;;;;;;;0.45;0.45;;;4.60;99.90;;;;;;5089081;28;20757;-75
2022/11/19 04:00:31;;;;;;;0.30;0.30;;;4.80;99.90;;;;;;5087992;28;20028;-75
2022/11/19 04:02:58;;;;;;;0.88;0.45;;;4.90;99.90;;;;;;5088291;28;20040;-76
2022/11/19 04:05:24;;;;;;;0.57;0.57;;;5.10;99.90;;;;;;5089195;28;20020;-75
2022/11/19 04:07:50;;;;;;;2.67;0.25;;;5.20;99.90;;;;;;5089382;28;20082;-76
2022/11/19 04:10:15;;;;;;;0.60;0.20;;;5.30;99.90;;;;;;5104644;28;20028;-75
2022/11/19 04:12:41;;;;;;;1.55;0.40;;;5.30;99.90;;;;;;5089030;28;20020;-76
2022/11/19 04:15:10;;;;;;;0.25;0.25;;;5.40;99.90;;;;;;5089210;28;20026;-75
2022/11/19 04:17:36;;;;;;;0.28;0.28;;;5.40;99.90;;;;;;5087726;28;20028;-76
2022/11/19 04:20:03;;;;;;;0.45;0.45;;;5.40;99.90;;;;;;5088943;28;20039;-76
2022/11/19 04:22:29;;;;;;;0.25;0.20;;;5.40;99.90;;;;;;5088870;28;20028;-76
2022/11/19 04:24:55;;;;;;;0.35;0.35;;;5.40;99.90;;;;;;5089549;28;20020;-76
2022/11/19 04:27:20;;;;;;;0.40;0.40;;;5.50;99.90;;;;;;5089691;28;20102;-76
2022/11/19 04:29:46;;;;;;;0.63;0.47;;;5.50;99.90;;;;;;5087789;28;20480;-75
2022/11/19 04:32:12;;;;;;;1.02;0.77;;;5.50;99.90;;;;;;5089230;28;20051;-75
2022/11/19 04:34:37;;;;;;;1.05;0.73;;;5.50;99.90;;;;;;5088874;28;20021;-76
2022/11/19 04:37:03;;;;;;;4.03;1.60;;;5.50;99.90;;;;;;5088975;28;20032;-75
2022/11/19 04:39:29;;;;;;;2.30;0.30;;;5.40;99.90;;;;;;5104683;28;20074;-75
2022/11/19 04:41:54;;;;;;;1.50;0.95;;;4.20;99.90;;;;;;5088857;28;20089;-75
2022/11/19 04:44:20;;;;;;;1.88;0.82;;;5.10;99.90;;;;;;5087632;28;20107;-75
2022/11/19 04:46:46;;;;;;;1.15;0.32;;;5.10;99.90;;;;;;5087964;28;20035;-76
2022/11/19 04:49:12;;;;;;;1.60;0.47;;;5.00;99.90;;;;;;5087138;28;20028;-76
2022/11/19 04:51:37;;;;;;;1.27;0.45;;;4.90;99.90;;;;;;5091460;28;20031;-75
2022/11/19 04:54:03;;;;;;;1.55;0.77;;;4.80;99.90;;;;;;5092366;28;20520;-76
2022/11/19 04:56:29;;;;;;;1.23;0.45;;;4.50;99.90;;;;;;5092676;28;20493;-75
2022/11/19 04:58:55;;;;;;;0.40;0.40;;;4.50;99.90;;;;;;5092585;28;20472;-76
2022/11/19 05:01:21;;;;;;;0.40;0.40;;;4.40;99.90;;;;;;5092321;28;20079;-76
2022/11/19 05:03:47;;;;;;;0.30;0.30;;;4.20;99.90;;;;;;5092279;28;20094;-75
2022/11/19 05:06:13;;;;;;;0.50;0.50;;;4.20;99.90;;;;;;5108138;28;20027;-74
2022/11/19 05:08:38;;;;;;;1.67;0.45;;;4.20;99.90;;;;;;5092345;28;20076;-76
2022/11/19 05:11:04;;;;;;;1.35;0.20;;;4.30;99.90;;;;;;5092655;28;20483;-76
2022/11/19 05:13:30;;;;;;;2.95;1.20;;;4.20;99.90;;;;;;5092415;28;20028;-76
2022/11/19 05:15:56;;;;;;;4.05;0.73;;;4.10;99.90;;;;;;5108193;28;20027;-76
2022/11/19 05:18:23;;;;;;;0.40;0.30;;;4.10;99.90;;;;;;5090967;28;20040;-76
2022/11/19 05:20:48;;;;;;;2.63;0.55;;;4.00;99.90;;;;;;5092167;28;20125;-76
2022/11/19 05:23:14;;;;;;;2.17;1.40;;;3.90;99.90;;;;;;5092368;28;20065;-75
2022/11/19 05:25:39;;;;;;;2.10;1.85;;;3.80;99.90;;;;;;5092158;28;20020;-76
2022/11/19 05:28:05;;;;;;;0.70;0.70;;;3.90;99.90;;;;;;5092446;28;20028;-76
2022/11/19 05:30:31;;;;;;;1.63;0.73;;;4.00;99.90;;;;;;5090919;28;20031;-76
2022/11/19 05:32:56;;;;;;;1.35;1.05;;;4.10;99.90;;;;;;5092097;28;20489;-76
2022/11/19 05:35:22;;;;;;;0.35;0.35;;;4.10;99.90;;;;;;5091699;28;20489;-75
2022/11/19 05:37:49;;;;;;;3.38;0.47;;;4.20;99.90;;;;;;5092609;28;20032;-75
2022/11/19 05:40:16;;;;;;;1.75;0.50;;;4.30;99.90;;;;;;5092015;28;20304;-75
2022/11/19 05:42:41;;;;;;;0.50;0.50;;;4.50;99.90;;;;;;5091537;28;20572;-76
2022/11/19 05:45:08;;;;;;;1.15;1.05;;;4.60;99.90;;;;;;5091856;28;20024;-75
2022/11/19 05:47:34;;;;;;;2.30;0.90;;;4.80;99.90;;;;;;5090504;28;20548;-76
2022/11/19 05:49:59;;;;;;;1.65;0.52;;;4.90;99.90;;;;;;5091647;28;20099;-75
2022/11/19 05:52:25;;;;;;;2.17;0.60;;;5.00;99.90;;;;;;5107426;28;20123;-76
2022/11/19 05:54:51;;;;;;;0.55;0.35;;;5.10;99.90;;;;;;5091647;28;20022;-76
2022/11/19 05:57:16;;;;;;;2.38;0.60;;;5.00;99.90;;;;;;5091632;28;20492;-75
2022/11/19 05:59:42;;;;;;;1.80;0.60;;;4.90;99.90;;;;;;5091281;28;20546;-76
2022/11/19 06:02:08;;;;;;;4.95;1.33;;;5.00;99.90;;;;;;5091005;28;20247;-75
2022/11/19 06:04:33;;;;;;;1.42;0.80;;;5.00;99.90;;;;;;5090766;28;20080;-76
2022/11/19 06:06:59;;;;;;;0.68;0.68;;;5.00;99.90;;;;;;5091183;28;20296;-76
2022/11/19 06:09:25;;;;;;;3.70;0.40;;;5.10;99.90;;;;;;5091288;28;20012;-75
2022/11/19 06:11:51;;;;;;;0.77;0.60;;;5.20;99.90;;;;;;5091284;28;20468;-76
2022/11/19 06:14:24;;;;;;;1.08;1.08;;;5.20;99.90;;;;;;5089848;28;20028;-76
2022/11/19 06:16:55;;;;;;;0.70;0.70;;;5.20;99.90;;;;;;5091116;28;20020;-76
2022/11/19 06:19:22;;;;;;;0.70;0.70;;;5.20;99.90;;;;;;5090797;28;20016;-76
2022/11/19 06:21:48;;;;;;;1.08;0.60;;;5.10;99.90;;;;;;5090971;28;20059;-76
2022/11/19 06:24:14;;;;;;;3.50;0.75;;;5.10;99.90;;;;;;5090890;28;20537;-76
2022/11/19 06:26:40;;;;;;;1.23;0.60;;;5.10;99.90;;;;;;5091316;28;20027;-76
2022/11/19 06:29:06;;;;;;;8.48;0.73;;;5.10;99.90;;;;;;5089870;28;20074;-75
2022/11/19 06:31:32;;;;;;;1.27;1.17;;;5.10;99.90;;;;;;5090792;28;20024;-76
2022/11/19 06:33:58;;;;;;;5.13;0.50;;;5.10;99.90;;;;;;5090650;28;20031;-76
2022/11/19 06:36:24;;;;;;;0.50;0.50;;;5.10;99.90;;;;;;5090672;28;20395;-76
2022/11/19 06:38:50;;;;;;;1.05;0.65;;;5.10;99.90;;;;;;5090566;28;20038;-76
2022/11/19 06:41:16;;;;;;;2.47;0.70;;;5.10;99.90;;;;;;5089077;28;20058;-76
2022/11/19 06:43:42;;;;;;;4.32;0.60;;;5.10;99.90;;;;;;5091069;28;20020;-76
2022/11/19 06:46:09;;;;;;;0.50;0.50;;;5.20;99.90;;;;;;5090432;28;20023;-76
2022/11/19 06:48:35;;;;;;;0.40;0.32;;;5.20;99.90;;;;;;5090798;28;20058;-75
2022/11/19 06:51:01;;;;;;;0.95;0.45;;;7.70;99.90;;;;;;5090472;28;20012;-75
2022/11/19 06:53:29;;;;;;;0.60;0.57;;;5.30;99.90;;;;;;5090532;28;20460;-77
2022/11/19 06:56:00;;;;;;;1.17;1.07;;;5.30;99.90;;;;;;5090816;28;20024;-76
2022/11/19 06:58:27;;;;;;;1.67;0.57;;;5.30;99.90;;;;;;5091181;28;20115;-77
2022/11/19 07:00:53;;;;;;;10.38;1.52;;;5.30;99.90;;;;;;5090600;28;20020;-77
2022/11/19 07:03:19;;;;;;;6.32;0.98;;;5.40;99.90;;;;;;5090398;28;20032;-76
2022/11/19 07:05:47;;;;;;;5.32;1.02;;;5.40;99.90;;;;;;5090663;28;20039;-76
2022/11/19 07:08:13;;;;;;;0.52;0.52;;;5.50;99.90;;;;;;5090645;28;20058;-76
2022/11/19 07:10:38;;;;;;;0.47;0.47;;;5.60;99.90;;;;;;5090190;28;20020;-76
2022/11/19 07:13:04;;;;;;;4.47;0.65;;;5.70;99.90;;;;;;5087958;28;20133;-76
2022/11/19 07:15:30;;;;;;;0.77;0.60;;;5.70;99.90;;;;;;5089866;28;20050;-76
2022/11/19 07:17:55;;;;;;;5.70;0.85;;;5.80;99.90;;;;;;5105240;28;20399;-76
2022/11/19 07:20:24;;;;;;;2.42;1.40;;;5.90;99.90;;;;;;5089821;28;20078;-76
2022/11/19 07:22:49;;;;;;;4.93;1.30;;;5.90;99.90;;;;;;5090099;28;20107;-76
2022/11/19 07:25:15;;;;;;;6.13;1.63;;;6.00;99.90;;;;;;5090361;28;20404;-76
2022/11/19 07:27:47;;;;;;;5.90;1.15;;;6.00;99.90;;;;;;5089819;28;20055;-76
2022/11/19 07:30:13;;;;;;;2.00;1.40;;;6.10;99.90;;;;;;5090576;28;20508;-75
2022/11/19 07:32:40;;;;;;;0.82;0.80;;;6.20;99.90;;;;;;5088298;28;20475;-76
2022/11/19 07:35:06;;;;;;;4.47;0.77;;;6.20;99.90;;;;;;5087826;28;20393;-76
2022/11/19 07:37:32;;;;;;;0.68;0.68;;;6.30;99.90;;;;;;5089761;28;20126;-76
2022/11/19 07:39:58;;;;;;;5.85;1.25;;;6.30;99.90;;;;;;5089781;28;20126;-76
2022/11/19 07:45:08;;;;;;;0.50;0.50;;;6.50;99.90;;;;;;5089731;28;20055;-76
2022/11/19 07:47:34;;;;;;;1.48;0.73;;;6.50;99.90;;;;;;5088254;28;20043;-76
2022/11/19 07:50:00;;;;;;;3.60;1.08;;;6.50;99.90;;;;;;5104987;28;20024;-75
2022/11/19 07:52:26;;;;;;;3.45;0.73;;;6.60;99.90;;;;;;5089353;28;20024;-75
2022/11/19 07:54:51;;;;;;;0.45;0.45;;;6.70;99.90;;;;;;5089757;28;20024;-76
2022/11/19 07:57:17;;;;;;;1.17;1.08;;;6.60;99.90;;;;;;5088134;28;20082;-76
2022/11/19 07:59:43;;;;;;;2.17;0.55;;;6.70;99.90;;;;;;5105137;28;20016;-76
2022/11/19 08:02:12;;;;;;;1.05;0.55;;;6.70;99.90;;;;;;5089447;28;20047;-75
2022/11/19 08:04:38;;;;;;;;;;;6.80;99.90;;;;;;5089538;28;20039;-77
2022/11/19 08:07:03;;;;;;;1.67;0.68;;;6.80;99.90;;;;;;5089808;28;20411;-76
2022/11/19 08:09:29;;;;;;;9.38;0.82;;;6.90;99.90;;;;;;5090965;28;20185;-77
2022/11/19 08:11:55;;;;;;;1.17;0.73;;;7.10;99.90;;;;;;5084922;28;20060;-77
2022/11/19 08:14:21;;;;;;;3.05;0.57;;;7.20;99.90;;;;;;5086182;28;20116;-77
2022/11/19 08:19:30;;;;;;;0.50;0.50;;;7.30;99.90;;;;;;5087470;28;20483;-76
2022/11/19 08:21:56;;;;;;;2.10;1.05;;;7.40;99.90;;;;;;5106151;28;20048;-81
2022/11/19 08:24:22;;;;;;;4.85;1.45;;;;;;;;;;5105526;28;20013;-77
2022/11/19 08:26:48;;;;;;;0.88;0.88;;;7.60;99.90;;;;;;5090580;28;20027;-76
2022/11/19 08:29:15;;;;;;;0.80;0.68;;;7.80;99.90;;;;;;5107084;28;20077;-77
2022/11/19 08:31:42;;;;;;;1.73;1.63;;;8.00;99.90;;;;;;5089899;28;20028;-76
2022/11/19 08:34:07;;;;;;;0.75;0.75;;;7.90;99.90;;;;;;5091291;28;20101;-78
2022/11/19 08:36:33;;;;;;;0.80;0.80;;;7.90;99.90;;;;;;5094715;28;20485;-77
2022/11/19 08:38:59;;;;;;;3.10;0.77;;;;;;;;;;5109394;28;20166;-78
2022/11/19 08:44:11;;;;;;;1.63;1.35;;;7.90;99.90;;;;;;5093715;28;20502;-77
2022/11/19 08:46:37;;;;;;;3.35;0.90;;;7.90;99.90;;;;;;5094320;28;20112;-78
2022/11/19 08:49:04;;;;;;;2.80;1.60;;;8.00;99.90;;;;;;5095727;28;20107;-80
2022/11/19 08:51:30;;;;;;;5.70;1.65;;;8.00;99.90;;;;;;5086928;28;20481;-77
2022/11/19 08:53:56;;;;;;;2.25;1.13;;;8.10;99.90;;;;;;5072702;28;20066;-82
2022/11/19 08:56:22;;;;;;;2.92;1.48;;;8.10;99.90;;;;;;5074802;28;20024;-78
2022/11/19 08:58:48;;;;;;;2.00;1.05;;;8.30;99.90;;;;;;5082633;28;20016;-76
2022/11/19 09:01:15;;;;;;;2.42;1.00;;;8.40;99.90;;;;;;5095742;28;20032;-78
2022/11/19 09:03:41;;;;;;;1.35;1.25;;;;;;;;;;5096412;28;20019;-79
2022/11/19 09:06:08;;;;;;;4.20;1.48;;;8.70;99.90;;;;;;5093289;28;20041;-75
2022/11/19 09:08:34;;;;;;;3.00;1.08;;;8.70;99.90;;;;;;5096155;28;20016;-76
2022/11/19 09:11:08;;;;;;;1.35;1.20;;;8.80;99.90;;;;;;5072363;28;20457;-77
2022/11/19 09:13:34;;;;;;;3.22;2.05;;;9.40;99.90;;;;;;5072530;28;20028;-77
2022/11/19 09:16:00;;;;;;;2.63;0.73;;;11.10;99.90;;;;;;5103128;28;20436;-77
2022/11/19 09:18:26;;;;;;;2.72;0.80;;;9.00;99.90;;;;;;5091405;28;20142;-77
2022/11/19 09:20:54;;;;;;;1.00;0.47;;;9.00;99.90;;;;;;5089015;28;20091;-78
2022/11/19 09:23:20;;;;;;;1.20;0.63;;;9.10;99.90;;;;;;5088794;28;20038;-79
2022/11/19 09:25:57;;;;;;;1.55;1.13;;;9.00;99.90;;;;;;5090878;28;20012;-78
2022/11/19 09:28:23;;;;;;;4.63;1.58;;;;;;;;;;5092292;28;20477;-76
2022/11/19 09:31:00;;;;;;;4.57;1.13;;;9.00;99.90;;;;;;5089818;28;20020;-77
2022/11/19 09:33:28;;;;;;;0.60;0.60;;;9.00;99.90;;;;;;5073613;28;20063;-77
2022/11/19 09:35:54;;;;;;;0.95;0.55;;;9.20;99.90;;;;;;5070988;28;20070;-76
2022/11/19 09:38:20;;;;;;;1.40;1.33;;;9.00;99.90;;;;;;5070997;28;20025;-77
2022/11/19 09:40:54;;;;;;;4.78;0.60;;;8.90;99.90;;;;;;5073051;28;20028;-77
2022/11/19 09:43:32;;;;;;;2.45;0.68;;;8.90;99.90;;;;;;5072327;28;20456;-77
2022/11/19 09:46:00;;;;;;;2.72;0.77;;;9.00;99.90;;;;;;5073282;28;20050;-78
2022/11/19 09:48:36;;;;;;;2.20;0.90;;;8.90;99.90;;;;;;5074154;28;20025;-76
2022/11/19 09:51:15;;;;;;;1.13;0.40;;;8.90;99.90;;;;;;5071754;28;20519;-78
2022/11/19 09:53:48;;;;;;;3.58;0.63;;;8.70;99.90;;;;;;5073714;28;20027;-77
2022/11/19 09:56:45;;;;;;;1.30;0.63;;;9.60;99.90;;;;;;5070243;28;20499;-76
2022/11/19 09:59:37;;;;;;;5.07;1.40;;;9.00;99.90;;;;;;5062230;28;20036;-76
2022/11/19 10:02:16;;;;;;;1.27;0.77;;;9.40;99.90;;;;;;5070038;28;20087;-79
2022/11/19 10:04:43;;;;;;;9.60;1.95;;;9.70;99.90;;;;;;5078769;28;20020;-77
2022/11/19 10:07:21;;;;;;;1.33;0.70;;;9.50;99.90;;;;;;5071485;28;20063;-78
2022/11/19 10:10:08;;;;;;;0.40;0.40;;;9.70;99.90;;;;;;5076986;28;20016;-77
2022/11/19 10:12:37;;;;;;;0.50;0.50;;;9.30;99.90;;;;;;5090124;28;20496;-76
2022/11/19 10:15:09;;;;;;;1.23;0.32;;;;;;;;;;5093682;28;20025;-76
2022/11/19 10:18:10;;;;;;;3.00;0.65;;;10.10;99.90;;;;;;5098219;28;20286;-78
2022/11/19 10:20:38;;;;;;;0.30;0.30;;;10.10;99.90;;;;;;5094826;28;20032;-75
2022/11/19 10:23:35;;;;;;;4.70;0.60;;;10.20;99.90;;;;;;5096628;28;20039;-76
2022/11/19 10:26:10;;;;;;;0.88;0.88;;;10.10;99.90;;;;;;5096645;28;20261;-78
2022/11/19 10:28:39;;;;;;;0.77;0.52;;;9.90;99.90;;;;;;5091269;28;20020;-76
2022/11/19 10:31:34;;;;;;;0.65;0.57;;;10.00;99.90;;;;;;5093284;28;20055;-76
2022/11/19 10:34:24;;;;;;;0.50;0.50;;;10.50;99.90;;;;;;5083120;28;20085;-76
2022/11/19 10:37:06;;;;;;;2.22;1.42;;;10.50;99.90;;;;;;5069577;28;20318;-78
2022/11/19 10:39:50;;;;;;;0.70;0.63;;;10.20;99.90;;;;;;5079367;28;20013;-76
2022/11/19 10:42:28;;;;;;;0.95;0.70;;;10.20;99.90;;;;;;5087060;28;20032;-77
2022/11/19 10:45:00;;;;;;;0.50;0.35;;;10.20;99.90;;;;;;5088309;28;20103;-76
2022/11/19 10:47:31;;;;;;;1.02;0.68;;;10.20;99.90;;;;;;5093353;28;20429;-77
2022/11/19 10:49:57;;;;;;;5.25;0.70;;;10.30;99.90;;;;;;5095491;28;20051;-76
2022/11/19 10:52:30;;;;;;;0.80;0.60;;;10.20;99.90;;;;;;5089459;28;20056;-77
2022/11/19 10:55:11;;;;;;;1.27;0.75;;;10.30;99.90;;;;;;5091196;28;20020;-77
2022/11/19 10:57:37;;;;;;;4.10;0.57;;;;;;;;;;5090909;28;20103;-76
2022/11/19 11:00:03;;;;;;;0.40;0.40;;;10.20;99.90;;;;;;5088389;28;20030;-77
2022/11/19 11:02:46;;;;;;;1.20;0.77;;;10.30;99.90;;;;;;5086201;28;20093;-76
2022/11/19 11:05:15;;;;;;;4.97;0.70;;;10.60;99.90;;;;;;5089182;28;20020;-76
2022/11/19 11:07:55;;;;;;;0.47;0.47;;;10.60;99.90;;;;;;5091508;28;20054;-76
2022/11/19 11:10:24;;;;;;;0.32;0.32;;;10.70;99.90;;;;;;5089713;28;20269;-76
2022/11/19 11:15:54;;;;;;;5.18;1.08;;;11.00;99.90;;;;;;5087156;28;20078;-76
2022/11/19 11:18:26;;;;;;;0.77;0.70;;;10.90;99.90;;;;;;5089911;28;20020;-77
2022/11/19 11:20:52;;;;;;;1.10;0.82;;;;;;;;;;5088515;28;20091;-76
2022/11/19 11:23:22;;;;;;;1.67;0.98;;;10.90;99.90;;;;;;5088154;28;20016;-81
2022/11/19 11:25:55;;;;;;;1.65;0.85;;;10.90;99.90;;;;;;5087598;28;20035;-76
2022/11/19 11:28:22;;;;;;;1.27;0.50;;;10.80;99.90;;;;;;5087111;28;20035;-75
2022/11/19 11:30:57;;;;;;;3.17;1.50;;;10.80;99.90;;;;;;5084686;28;20024;-76
2022/11/19 11:33:31;;;;;;;1.77;0.63;;;10.60;99.90;;;;;;5080461;28;20438;-76
2022/11/19 11:36:07;;;;;;;1.33;0.65;;;10.50;99.90;;;;;;5084050;28;20131;-76
2022/11/19 11:38:42;;;;;;;0.30;0.30;;;10.70;99.90;;;;;;5084583;28;20552;-76
2022/11/19 11:41:11;;;;;;;0.90;0.90;;;10.60;99.90;;;;;;5092007;28;20036;-77
2022/11/19 11:43:40;;;;;;;1.40;0.70;;;10.50;99.90;;;;;;5104733;28;20024;-76
2022/11/19 11:46:08;;;;;;;;;;;10.40;99.90;;;;;;5107083;28;20276;-77
2022/11/19 11:48:43;;;;;;;2.80;0.98;;;10.40;99.90;;;;;;5107775;28;19960;-76
2022/11/19 11:51:26;;;;;;;3.40;1.08;;;10.40;99.20;;;;;;5107837;27;20060;-76
2022/11/19 11:54:16;;;;;;;0.93;0.68;;;10.30;99.90;;;;;;5108670;28;20024;-77
2022/11/19 11:56:42;;;;;;;2.13;1.15;;;10.20;99.80;;;;;;5105948;28;20030;-77
2022/11/19 11:59:19;;;;;;;1.83;1.15;;;10.20;99.90;;;;;;5107911;28;20024;-75
2022/11/19 12:01:56;;;;;;;0.98;0.82;;;10.10;99.90;;;;;;5110553;28;20047;-80
2022/11/19 12:04:23;;;;;;;0.95;0.93;;;10.10;99.90;;;;;;5109698;28;20034;-76
2022/11/19 12:07:15;;;;;;;4.82;1.63;;;10.00;99.90;;;;;;5110768;28;20074;-77
2022/11/19 12:10:02;;;;;;;3.97;0.73;;;10.10;99.90;;;;;;5111933;28;20047;-76
2022/11/19 12:12:39;;;;;;;1.90;1.38;;;9.60;99.90;;;;;;5128618;27;20076;-76
2022/11/19 12:15:08;;;;;;;3.47;1.77;;;9.50;99.90;;;;;;5110677;28;20028;-76
2022/11/19 12:17:46;;;;;;;1.83;1.13;;;9.40;99.90;;;;;;5109656;28;20501;-76
2022/11/19 12:20:32;;;;;;;6.10;1.50;;;9.50;99.90;;;;;;5112376;28;20242;-76
2022/11/19 12:23:26;;;;;;;4.00;1.73;;;9.40;99.90;;;;;;5110674;28;20507;-77
2022/11/19 12:26:18;;;;;;;7.13;1.83;;;9.50;99.90;;;;;;5115705;28;20024;-76
2022/11/19 12:29:25;;;;;;;3.63;2.63;;;9.60;99.90;;;;;;5106064;28;20028;-77
2022/11/19 12:32:02;;;;;;;1.63;1.52;;;9.60;99.90;;;;;;5083518;28;20039;-78
2022/11/19 12:34:45;;;;;;;1.25;0.75;;;9.70;99.90;;;;;;5096595;28;20392;-76
2022/11/19 12:37:19;;;;;;;3.58;1.52;;;9.70;99.90;;;;;;5099114;28;20103;-78
2022/11/19 12:39:53;;;;;;;5.45;1.55;;;9.80;99.90;;;;;;5100271;28;20054;-78
2022/11/19 12:42:45;;;;;;;4.53;1.83;;;9.80;99.90;;;;;;5099641;28;20099;-78
2022/11/19 12:45:25;;;;;;;3.28;1.15;;;9.80;99.90;;;;;;5091206;28;20323;-79
2022/11/19 12:48:09;;;;;;;4.47;0.85;;;9.90;99.90;;;;;;5098925;28;20280;-78
2022/11/19 12:50:35;;;;;;;6.25;2.17;;;9.90;99.90;;;;;;5098482;28;20464;-76
2022/11/19 12:53:07;;;;;;;4.57;1.58;;;9.70;99.90;;;;;;5094120;28;20040;-79
2022/11/19 12:56:10;;;;;;;1.15;1.00;;;9.70;99.90;;;;;;5090017;28;20111;-77
2022/11/19 12:59:13;;;;;;;0.98;0.70;;;9.70;99.90;;;;;;5088221;28;20930;-75
2022/11/19 13:01:43;;;;;;;1.30;1.20;;;9.50;99.90;;;;;;5090911;28;20036;-80
2022/11/19 13:04:27;;;;;;;4.60;1.10;;;9.40;99.90;;;;;;5096296;28;20036;-77
2022/11/19 13:06:57;;;;;;;4.97;2.03;;;9.30;99.90;;;;;;5100734;28;20082;-78
2022/11/19 13:09:49;;;;;;;3.60;1.30;;;9.20;99.90;;;;;;5101119;28;20020;-77
2022/11/19 13:12:31;;;;;;;1.25;0.95;;;9.10;99.90;;;;;;5100321;28;20165;-78
2022/11/19 13:15:08;;;;;;;3.00;2.15;;;9.20;99.90;;;;;;5100256;28;20034;-78
2022/11/19 13:17:43;;;;;;;4.13;1.88;;;9.30;99.90;;;;;;5099618;28;20027;-80
2022/11/19 13:20:24;;;;;;;2.13;1.02;;;9.30;99.90;;;;;;5097065;28;20016;-77
2022/11/19 13:22:54;;;;;;;2.80;1.10;;;9.30;99.90;;;;;;5100314;28;20243;-76
2022/11/19 13:25:30;;;;;;;3.22;0.90;;;9.20;99.90;;;;;;5098861;28;20051;-76
2022/11/19 13:27:57;;;;;;;4.68;1.25;;;9.10;99.90;;;;;;5093141;28;20024;-76
2022/11/19 13:30:25;;;;;;;2.13;0.70;;;9.10;99.90;;;;;;5093826;28;20220;-76
2022/11/19 13:33:23;;;;;;;4.05;1.00;;;9.10;99.90;;;;;;5083696;28;20074;-76
2022/11/19 13:36:15;;;;;;;1.20;1.10;;;9.20;99.90;;;;;;5109601;28;20111;-77
2022/11/19 13:39:00;;;;;;;0.63;0.63;;;9.20;99.90;;;;;;5081440;28;20093;-77